Time;durP1;ratioP1;P1;durP2;ratioP2;P2;SDS_P1;SDS_P2;PMS_P1;PMS_P2;Temp;Humidity;BMP_temperature;BMP_pressure;BME280_temperature;BME280_humidity;BME280_pressure;Samples;Min_cycle;Max_cycle;Signal;HPM_P1;HPM_P2
2022/04/06 00:01:27;;;;;;;3.70;3.40;;;;;;;7.54;100.00;95191.66;4993082;28;24790;-75
2022/04/06 00:03:55;;;;;;;3.97;3.38;;;;;;;7.51;100.00;95173.81;4993054;28;24417;-74
2022/04/06 00:06:22;;;;;;;4.93;3.42;;;;;;;7.47;100.00;95169.75;4993230;28;24525;-74
2022/04/06 00:08:48;;;;;;;4.88;3.50;;;;;;;7.46;100.00;95181.81;4991552;28;24890;-74
2022/04/06 00:11:15;;;;;;;4.47;3.40;;;;;;;7.45;100.00;95166.44;4992992;28;24448;-74
2022/04/06 00:13:41;;;;;;;3.53;2.90;;;;;;;7.62;100.00;95168.84;4993240;28;24508;-74
2022/04/06 00:16:08;;;;;;;3.38;3.08;;;;;;;7.58;100.00;95167.38;4992909;28;24424;-74
2022/04/06 00:18:34;;;;;;;4.80;3.15;;;;;;;7.57;100.00;95157.16;4992940;28;24457;-74
2022/04/06 00:21:02;;;;;;;3.38;3.08;;;;;;;7.52;100.00;95155.66;4992631;28;24977;-74
2022/04/06 00:23:29;;;;;;;4.50;3.50;;;;;;;7.50;100.00;95152.38;4992823;28;24456;-74
2022/04/06 00:25:55;;;;;;;5.07;3.33;;;;;;;7.52;100.00;95153.09;4992786;28;24595;-74
2022/04/06 00:28:22;;;;;;;4.57;3.78;;;;;;;7.48;100.00;95143.06;4992787;28;24467;-74
2022/04/06 00:30:48;;;;;;;5.43;3.40;;;;;;;7.56;100.00;95155.50;4992691;28;24416;-74
2022/04/06 00:33:15;;;;;;;6.28;3.28;;;;;;;7.55;100.00;95148.69;4993016;28;24429;-74
2022/04/06 00:35:41;;;;;;;3.75;3.17;;;;;;;7.52;100.00;95147.13;4992608;28;24440;-74
2022/04/06 00:38:09;;;;;;;3.20;2.90;;;;;;;7.45;100.00;95150.97;4992176;28;24986;-74
2022/04/06 00:40:37;;;;;;;4.80;3.47;;;;;;;7.46;100.00;95150.09;4992480;28;24483;-74
2022/04/06 00:43:07;;;;;;;4.63;3.80;;;;;;;7.49;100.00;95143.00;4992544;28;24814;-74
2022/04/06 00:45:33;;;;;;;4.03;3.63;;;;;;;7.53;100.00;95135.91;4992461;28;24439;-74
2022/04/06 00:48:00;;;;;;;3.70;3.37;;;;;;;7.57;100.00;95144.28;4992257;28;24516;-74
2022/04/06 00:50:26;;;;;;;2.95;2.70;;;;;;;7.50;100.00;95136.91;4991958;28;24428;-74
2022/04/06 00:52:57;;;;;;;3.65;3.35;;;;;;;7.43;100.00;95138.19;4992483;28;24432;-74
2022/04/06 00:55:29;;;;;;;3.40;3.10;;;;;;;7.43;100.00;95127.91;4992254;28;24476;-74
2022/04/06 00:57:57;;;;;;;4.30;3.42;;;;;;;7.47;100.00;95131.13;4992250;28;24448;-74
2022/04/06 01:00:25;;;;;;;4.50;3.67;;;;;;;7.47;100.00;95123.38;4992044;28;20757;-74
2022/04/06 01:02:52;;;;;;;4.15;3.22;;;;;;;7.43;100.00;95117.59;4992087;28;25029;-74
2022/04/06 01:05:18;;;;;;;3.80;3.30;;;;;;;7.45;100.00;95114.91;4991791;28;24421;-74
2022/04/06 01:07:50;;;;;;;3.63;3.23;;;;;;;7.45;100.00;95120.06;4991968;28;24616;-74
2022/04/06 01:10:16;;;;;;;3.60;3.30;;;;;;;7.38;100.00;95123.94;4991913;28;24563;-73
2022/04/06 01:12:46;;;;;;;5.25;3.65;;;;;;;7.39;100.00;95120.47;4991986;28;24425;-74
2022/04/06 01:15:13;;;;;;;4.33;3.50;;;;;;;7.41;100.00;95118.59;4991971;28;20890;-74
2022/04/06 01:17:39;;;;;;;4.18;3.78;;;;;;;7.48;100.00;95115.56;4991382;28;24519;-74
2022/04/06 01:20:08;;;;;;;5.78;4.32;;;;;;;7.40;100.00;95117.78;4991194;28;24993;-74
2022/04/06 01:22:36;;;;;;;5.07;4.00;;;;;;;7.46;100.00;95114.84;4991907;28;24425;-73
2022/04/06 01:25:04;;;;;;;4.03;3.67;;;;;;;7.46;100.00;95124.31;4991605;28;24455;-74
2022/04/06 01:27:31;;;;;;;4.72;4.32;;;;;;;7.42;100.00;95112.53;4991503;28;24962;-73
2022/04/06 01:29:57;;;;;;;5.97;4.93;;;;;;;7.44;100.00;95118.41;4991281;28;24795;-73
2022/04/06 01:32:27;;;;;;;7.25;4.93;;;;;;;7.51;100.00;95114.56;4990908;28;22265;-73
2022/04/06 01:34:56;;;;;;;5.13;4.57;;;;;;;7.44;100.00;95116.66;4991565;28;24432;-74
2022/04/06 01:37:23;;;;;;;10.55;4.70;;;;;;;7.48;100.00;95112.97;4991691;28;20831;-73
2022/04/06 01:39:51;;;;;;;5.13;4.22;;;;;;;7.42;100.00;95115.13;4991536;28;24491;-73
2022/04/06 01:42:19;;;;;;;4.20;3.72;;;;;;;7.35;100.00;95117.25;4991151;28;24779;-74
2022/04/06 01:44:48;;;;;;;5.18;4.22;;;;;;;7.39;100.00;95118.69;4991275;28;24468;-74
2022/04/06 01:47:17;;;;;;;6.57;4.20;;;;;;;7.35;100.00;95106.94;4991406;28;24420;-73
2022/04/06 01:52:28;;;;;;;4.35;3.95;;;;;;;7.32;100.00;95114.00;4991262;28;24420;-73
2022/04/06 01:55:00;;;;;;;5.53;3.97;;;;;;;7.26;100.00;95117.78;4991360;28;24417;-73
2022/04/06 01:57:27;;;;;;;5.55;4.40;;;;;;;7.36;100.00;95111.16;4991035;28;24982;-73
2022/04/06 01:59:54;;;;;;;5.85;4.13;;;;;;;7.30;100.00;95103.78;4991179;28;24429;-74
2022/04/06 02:02:22;;;;;;;4.90;3.97;;;;;;;7.37;100.00;95105.06;4991223;28;24420;-74
2022/04/06 02:04:49;;;;;;;5.63;4.03;;;;;;;7.35;100.00;95100.97;4991140;28;24424;-74
2022/04/06 02:07:15;;;;;;;5.35;4.28;;;;;;;7.27;100.00;95097.09;4991169;28;24420;-73
2022/04/06 02:09:42;;;;;;;5.78;4.63;;;;;;;7.20;100.00;95094.97;4990859;28;24425;-73
2022/04/06 02:12:11;;;;;;;5.88;4.70;;;;;;;7.14;100.00;95095.34;4991035;28;24417;-74
2022/04/06 02:14:39;;;;;;;8.38;4.63;;;;;;;7.07;100.00;95096.63;4990965;28;24815;-74
2022/04/06 02:17:07;;;;;;;4.95;4.50;;;;;;;7.06;100.00;95095.81;4991021;28;24428;-74
2022/04/06 02:19:34;;;;;;;4.72;4.30;;;;;;;7.04;100.00;95092.47;4990993;28;24432;-74
2022/04/06 02:22:01;;;;;;;5.47;4.30;;;;;;;7.12;100.00;95094.59;4987966;28;24495;-74
2022/04/06 02:24:27;;;;;;;4.68;3.88;;;;;;;7.08;100.00;95088.78;4990479;28;24460;-73
2022/04/06 02:26:54;;;;;;;5.55;4.55;;;;;;;7.02;100.00;95087.44;4991053;28;24433;-73
2022/04/06 02:29:22;;;;;;;5.15;4.40;;;;;;;7.00;100.00;95094.41;4990802;28;25034;-74
2022/04/06 02:31:48;;;;;;;6.65;4.63;;;;;;;6.99;100.00;95086.78;4990993;28;24429;-73
2022/04/06 02:34:15;;;;;;;8.45;4.45;;;;;;;6.95;100.00;95095.63;4995004;28;24468;-74
2022/04/06 02:36:41;;;;;;;6.35;4.18;;;;;;;6.97;100.00;95089.47;4994936;28;24417;-74
2022/04/06 02:39:08;;;;;;;5.43;4.35;;;;;;;6.93;100.00;95080.25;4994581;28;24461;-74
2022/04/06 02:41:34;;;;;;;4.18;3.75;;;;;;;6.91;100.00;95078.69;4994779;28;24425;-75
2022/04/06 02:44:00;;;;;;;6.57;4.35;;;;;;;6.83;100.00;95076.56;4994560;28;24838;-75
2022/04/06 02:46:28;;;;;;;5.13;4.18;;;;;;;6.86;100.00;95081.56;4994542;28;24986;-74
2022/04/06 02:48:55;;;;;;;8.93;4.30;;;;;;;6.81;100.00;95075.81;4994743;28;24416;-74
2022/04/06 02:51:21;;;;;;;4.30;3.72;;;;;;;6.79;100.00;95069.97;4994346;28;24487;-74
2022/04/06 02:53:48;;;;;;;4.50;3.90;;;;;;;6.82;100.00;95068.94;4994544;28;24961;-74
2022/04/06 02:56:14;;;;;;;6.70;4.07;;;;;;;6.78;100.00;95079.41;4994445;28;25008;-74
2022/04/06 02:58:41;;;;;;;4.67;3.80;;;;;;;6.74;100.00;95067.63;4994431;28;24465;-74
2022/04/06 03:01:08;;;;;;;6.03;4.22;;;;;;;6.82;100.00;95068.94;4994268;28;24425;-74
2022/04/06 03:03:35;;;;;;;6.90;4.50;;;;;;;6.82;100.00;95068.94;4994405;28;24471;-74
2022/04/06 03:06:02;;;;;;;5.35;4.57;;;;;;;6.84;100.00;95062.78;4994243;28;24421;-74
2022/04/06 03:08:29;;;;;;;5.07;4.57;;;;;;;6.84;100.00;95060.22;4994194;28;24448;-74
2022/04/06 03:10:56;;;;;;;6.63;4.77;;;;;;;6.81;100.00;95059.56;4994175;28;24500;-74
2022/04/06 03:13:22;;;;;;;7.10;4.78;;;;;;;6.79;100.00;95057.09;4994201;28;24985;-74
2022/04/06 03:15:48;;;;;;;5.93;4.30;;;;;;;6.83;100.00;95048.28;4994125;28;24425;-75
2022/04/06 03:18:15;;;;;;;6.30;4.50;;;;;;;6.81;100.00;95046.69;4993964;28;24456;-74
2022/04/06 03:20:43;;;;;;;16.15;4.22;;;;;;;6.77;100.00;95051.19;4993780;28;24417;-74
2022/04/06 03:23:09;;;;;;;6.25;4.47;;;;;;;6.74;100.00;95046.22;4994133;28;24433;-74
2022/04/06 03:25:36;;;;;;;5.47;4.30;;;;;;;6.78;100.00;95045.13;4994201;28;24431;-74
2022/04/06 03:28:02;;;;;;;5.55;4.18;;;;;;;6.84;100.00;95042.19;4994163;28;24463;-74
2022/04/06 03:30:29;;;;;;;6.40;4.68;;;;;;;6.79;100.00;95039.06;4993832;28;24428;-73
2022/04/06 03:32:55;;;;;;;5.60;4.30;;;;;;;6.87;100.00;95031.72;4993873;28;24993;-74
2022/04/06 03:35:21;;;;;;;6.15;4.20;;;;;;;6.77;100.00;95028.03;4993650;28;24429;-73
2022/04/06 03:37:51;;;;;;;5.00;4.40;;;;;;;6.73;100.00;95027.38;4993778;28;24433;-74
2022/04/06 03:40:17;;;;;;;7.72;5.18;;;;;;;6.77;100.00;95030.59;4993619;28;24433;-74
2022/04/06 03:42:44;;;;;;;6.90;4.70;;;;;;;6.75;100.00;95032.47;4993403;28;24421;-72
2022/04/06 03:45:11;;;;;;;6.85;4.70;;;;;;;6.66;100.00;95030.41;4993620;28;24421;-72
2022/04/06 03:47:38;;;;;;;5.35;4.68;;;;;;;6.65;100.00;95027.03;4993431;28;24421;-72
2022/04/06 03:50:07;;;;;;;5.78;5.00;;;;;;;6.66;100.00;95025.28;4993463;28;24421;-72
2022/04/06 03:52:33;;;;;;;6.60;4.63;;;;;;;6.71;100.00;95026.66;4993631;28;24553;-74
2022/04/06 03:55:01;;;;;;;6.07;4.40;;;;;;;6.66;100.00;95025.28;4993629;28;24452;-74
2022/04/06 03:57:28;;;;;;;5.68;4.85;;;;;;;6.66;100.00;95027.84;4993474;28;24428;-74
2022/04/06 03:59:54;;;;;;;5.83;5.20;;;;;;;6.66;100.00;95026.09;4993296;28;24477;-73
2022/04/06 04:02:21;;;;;;;7.77;4.47;;;;;;;6.68;100.00;95023.44;4993201;28;24452;-74
2022/04/06 04:04:47;;;;;;;6.97;4.70;;;;;;;6.64;100.00;95016.84;4993381;28;24417;-74
2022/04/06 04:07:20;;;;;;;6.28;5.32;;;;;;;6.67;100.00;95019.19;4993410;28;24427;-73
2022/04/06 04:09:47;;;;;;;8.07;4.40;;;;;;;6.67;100.00;95020.03;4993470;28;24855;-74
2022/04/06 04:12:15;;;;;;;7.05;5.10;;;;;;;6.66;100.00;95015.81;4993214;28;24833;-74
2022/04/06 04:14:42;;;;;;;5.90;5.13;;;;;;;6.63;100.00;95021.13;4993046;28;24942;-74
2022/04/06 04:17:08;;;;;;;5.88;4.85;;;;;;;6.65;100.00;95013.34;4992642;28;24501;-74
2022/04/06 04:19:35;;;;;;;6.85;5.45;;;;;;;6.71;100.00;95015.53;4992905;28;24523;-74
2022/04/06 04:22:01;;;;;;;5.60;5.05;;;;;;;6.60;100.00;95013.63;4992687;28;24424;-77
2022/04/06 04:24:28;;;;;;;5.70;5.20;;;;;;;6.65;100.00;95018.47;4992661;28;24858;-76
2022/04/06 04:26:54;;;;;;;6.17;5.57;;;;;;;6.58;100.00;95015.44;4991491;28;24438;-77
2022/04/06 04:29:22;;;;;;;6.23;5.30;;;;;;;6.58;100.00;95004.31;4993031;28;24464;-77
2022/04/06 04:31:48;;;;;;;6.03;5.43;;;;;;;6.57;100.00;95000.94;4992610;28;24943;-76
2022/04/06 04:34:15;;;;;;;6.18;5.25;;;;;;;6.59;100.00;95009.38;4992996;28;24783;-76
2022/04/06 04:36:42;;;;;;;6.18;5.00;;;;;;;6.57;100.00;95008.63;4992699;28;25140;-74
2022/04/06 04:39:08;;;;;;;6.07;5.47;;;;;;;6.60;100.00;95000.75;4992851;28;24465;-75
2022/04/06 04:41:35;;;;;;;5.87;5.00;;;;;;;6.54;100.00;95004.50;4992355;28;24982;-75
2022/04/06 04:44:01;;;;;;;7.40;5.47;;;;;;;6.63;100.00;94999.72;4992551;28;24428;-75
2022/04/06 04:46:29;;;;;;;6.93;5.50;;;;;;;6.56;100.00;95004.38;4992749;28;24421;-75
2022/04/06 04:48:56;;;;;;;6.07;5.53;;;;;;;6.59;100.00;94999.06;4992595;28;24421;-75
2022/04/06 04:51:22;;;;;;;5.60;5.03;;;;;;;6.59;100.00;95000.81;4992290;28;24836;-74
2022/04/06 04:53:49;;;;;;;5.75;5.18;;;;;;;6.60;100.00;95002.47;4992379;28;24432;-74
2022/04/06 04:56:16;;;;;;;5.53;4.78;;;;;;;6.60;100.00;94998.19;4991340;28;24467;-74
2022/04/06 04:58:42;;;;;;;9.10;5.70;;;;;;;6.58;100.00;95000.00;4991977;28;24909;-74
2022/04/06 05:01:09;;;;;;;7.40;6.57;;;;;;;6.60;100.00;95003.31;4992184;28;24424;-75
2022/04/06 05:03:37;;;;;;;8.68;6.50;;;;;;;6.67;100.00;94996.03;4992299;28;24966;-75
2022/04/06 05:06:03;;;;;;;8.63;6.45;;;;;;;6.64;100.00;95002.22;4992355;28;24834;-75
2022/04/06 05:08:29;;;;;;;6.50;5.05;;;;;;;6.66;100.00;95000.38;4991831;28;24511;-70
2022/04/06 05:10:56;;;;;;;9.37;5.00;;;;;;;6.67;100.00;94999.44;4991800;28;24424;-75
2022/04/06 05:13:22;;;;;;;5.40;4.90;;;;;;;6.64;100.00;94993.69;4991457;28;24429;-75
2022/04/06 05:15:49;;;;;;;6.25;4.80;;;;;;;6.64;100.00;94989.34;4992183;28;24823;-75
2022/04/06 05:18:15;;;;;;;5.97;4.35;;;;;;;6.67;100.00;94993.47;4992022;28;20772;-75
2022/04/06 05:20:43;;;;;;;5.00;4.57;;;;;;;6.68;100.00;94997.72;4992103;28;24428;-75
2022/04/06 05:23:09;;;;;;;5.07;4.18;;;;;;;6.67;100.00;94999.44;4992017;28;24432;-75
2022/04/06 05:25:36;;;;;;;5.07;4.57;;;;;;;6.68;100.00;95000.28;4991625;28;24444;-76
2022/04/06 05:28:03;;;;;;;4.18;3.78;;;;;;;6.67;100.00;94994.28;4991548;28;24997;-75
2022/04/06 05:30:31;;;;;;;6.90;4.75;;;;;;;6.67;100.00;94988.31;4991744;28;24428;-75
2022/04/06 05:32:59;;;;;;;4.82;4.05;;;;;;;6.76;100.00;95000.66;4992012;28;24517;-75
2022/04/06 05:35:26;;;;;;;4.25;3.85;;;;;;;6.73;100.00;94999.06;4991643;28;24794;-75
2022/04/06 05:37:55;;;;;;;9.07;4.28;;;;;;;6.74;100.00;94992.19;4991421;28;24439;-75
2022/04/06 05:40:22;;;;;;;5.07;4.10;;;;;;;6.78;100.00;94996.22;4991369;28;24453;-74
2022/04/06 05:42:48;;;;;;;5.95;4.00;;;;;;;6.79;100.00;94993.56;4991957;28;24432;-74
2022/04/06 05:45:16;;;;;;;5.55;4.13;;;;;;;6.79;100.00;94993.56;4991435;28;24424;-75
2022/04/06 05:47:43;;;;;;;4.75;3.70;;;;;;;6.83;100.00;94989.06;4991466;28;24424;-75
2022/04/06 05:50:11;;;;;;;4.57;3.75;;;;;;;6.88;100.00;94991.34;4991212;28;24507;-75
2022/04/06 05:52:37;;;;;;;3.50;3.20;;;;;;;6.87;100.00;95003.41;4991051;28;24433;-75
2022/04/06 05:55:06;;;;;;;4.22;3.45;;;;;;;6.87;100.00;94998.25;4990938;28;24973;-75
2022/04/06 05:57:33;;;;;;;4.43;3.35;;;;;;;6.89;100.00;94996.41;4991335;28;24428;-75
2022/04/06 05:59:59;;;;;;;3.22;3.00;;;;;;;6.96;100.00;94991.72;4990504;28;24483;-76
2022/04/06 06:02:26;;;;;;;3.67;3.05;;;;;;;6.99;100.00;94989.78;4990745;28;24421;-75
2022/04/06 06:04:53;;;;;;;3.40;3.10;;;;;;;7.00;100.00;94999.16;4990991;28;20756;-76
2022/04/06 06:07:20;;;;;;;3.30;3.00;;;;;;;6.97;100.00;94998.50;4990803;28;20830;-76
2022/04/06 06:09:47;;;;;;;4.45;3.10;;;;;;;7.07;100.00;95001.34;4990977;28;20780;-76
2022/04/06 06:12:15;;;;;;;3.75;3.30;;;;;;;7.11;100.00;95002.81;4993046;28;24464;-76
2022/04/06 06:14:42;;;;;;;3.45;3.00;;;;;;;7.13;100.00;95004.38;4996388;28;24504;-71
2022/04/06 06:17:08;;;;;;;4.22;2.95;;;;;;;7.23;100.00;95002.91;4998520;28;24800;-75
2022/04/06 06:19:35;;;;;;;3.93;3.53;;;;;;;7.32;100.00;95003.25;4996260;28;25009;-75
2022/04/06 06:22:02;;;;;;;5.05;2.90;;;;;;;7.29;100.00;94999.13;4999211;28;24436;-75
2022/04/06 06:24:28;;;;;;;3.40;3.00;;;;;;;7.33;100.00;94998.00;4998771;28;24439;-74
2022/04/06 06:26:54;;;;;;;4.47;2.83;;;;;;;7.29;100.00;95001.69;4990723;28;24429;-75
2022/04/06 06:29:23;;;;;;;3.43;3.00;;;;;;;7.25;100.00;95001.06;4990965;28;24495;-75
2022/04/06 06:31:49;;;;;;;3.60;3.17;;;;;;;7.30;100.00;94997.34;4990842;28;24417;-76
2022/04/06 06:34:16;;;;;;;3.17;2.88;;;;;;;7.27;100.00;95004.38;4991106;28;24846;-75
2022/04/06 06:36:42;;;;;;;3.83;2.92;;;;;;;7.34;100.00;95002.25;4991220;28;20772;-74
2022/04/06 06:39:09;;;;;;;3.03;2.58;;;;;;;7.39;100.00;95002.78;4990904;28;24814;-75
2022/04/06 06:41:36;;;;;;;3.67;2.80;;;;;;;7.41;100.00;94992.38;4990607;28;24528;-75
2022/04/06 06:44:03;;;;;;;4.35;2.28;;;;;;;7.36;100.00;94995.22;4996120;28;24772;-74
2022/04/06 06:46:31;;;;;;;3.17;2.63;;;;;;;7.42;100.00;94988.88;4999741;28;24436;-74
2022/04/06 06:49:02;;;;;;;2.35;2.15;;;;;;;7.46;100.00;95001.47;4992694;28;20849;-75
2022/04/06 06:51:30;;;;;;;3.55;2.40;;;;;;;7.42;100.00;95002.59;4989745;28;24471;-74
2022/04/06 06:53:56;;;;;;;4.28;2.33;;;;;;;7.46;100.00;94998.06;4990133;28;24444;-74
2022/04/06 06:56:23;;;;;;;3.20;2.25;;;;;;;7.47;100.00;94990.22;4989475;28;24823;-77
2022/04/06 06:58:50;;;;;;;3.10;2.20;;;;;;;7.52;100.00;94995.91;4989599;28;24530;-76
2022/04/06 07:01:16;;;;;;;6.03;2.17;;;;;;;7.65;100.00;94995.16;4999874;28;24432;-75
2022/04/06 07:03:44;;;;;;;2.20;1.90;;;;;;;7.65;100.00;94995.16;4999214;28;25028;-75
2022/04/06 07:06:11;;;;;;;2.78;2.00;;;;;;;7.65;100.00;95002.88;5000030;28;24546;-75
2022/04/06 07:08:37;;;;;;;2.40;1.58;;;;;;;7.71;100.00;94998.19;5000380;28;24830;-75
2022/04/06 07:11:04;;;;;;;2.03;1.70;;;;;;;7.71;100.00;94995.59;4998934;28;24990;-75
2022/04/06 07:13:30;;;;;;;1.77;1.48;;;;;;;7.75;100.00;94996.22;4998137;28;25949;-75
2022/04/06 07:15:57;;;;;;;2.28;1.60;;;;;;;7.75;100.00;94985.94;4995465;28;24831;-75
2022/04/06 07:18:23;;;;;;;1.33;1.20;;;;;;;7.75;100.00;94984.16;5000176;28;24898;-75
2022/04/06 07:20:52;;;;;;;1.65;1.33;;;;;;;7.77;100.00;94991.78;5003216;28;24459;-75
2022/04/06 07:23:18;;;;;;;3.92;1.85;;;;;;;7.81;100.00;94984.69;4999716;28;20772;-75
2022/04/06 07:25:45;;;;;;;1.38;1.23;;;;;;;7.84;100.00;94990.47;5002276;28;24439;-74
2022/04/06 07:28:11;;;;;;;2.63;1.40;;;;;;;7.95;100.00;94975.13;5003329;28;24441;-75
2022/04/06 07:30:38;;;;;;;2.38;1.45;;;;;;;8.03;100.00;94978.97;5001194;28;24433;-74
2022/04/06 07:33:05;;;;;;;1.88;1.33;;;;;;;8.10;100.00;94977.66;5002564;28;24432;-75
2022/04/06 07:35:32;;;;;;;1.40;1.20;;;;;;;8.14;100.00;94979.09;5003344;28;24881;-75
2022/04/06 07:38:00;;;;;;;1.40;1.30;;;;;;;8.11;100.00;94981.88;5001379;28;24437;-75
2022/04/06 07:40:26;;;;;;;1.60;1.00;;;;;;;8.15;100.00;94978.97;5001600;28;24475;-75
2022/04/06 07:42:53;;;;;;;1.17;1.00;;;;;;;8.20;100.00;94984.69;5003088;28;24435;-75
2022/04/06 07:45:21;;;;;;;1.53;0.83;;;;;;;8.25;100.00;94974.03;5001336;28;24528;-75
2022/04/06 07:47:50;;;;;;;1.33;1.05;;;;;;;8.32;100.00;94975.28;5001542;28;24503;-75
2022/04/06 07:50:17;;;;;;;1.00;0.90;;;;;;;8.39;100.00;94981.72;4995732;28;24421;-75
2022/04/06 07:52:44;;;;;;;1.42;0.90;;;;;;;8.41;100.00;94979.03;5002202;28;20782;-76
2022/04/06 07:55:12;;;;;;;1.83;0.95;;;;;;;8.46;100.00;94980.41;5002732;28;24433;-75
2022/04/06 07:57:39;;;;;;;0.85;0.80;;;;;;;8.58;100.00;94962.44;4998867;28;20817;-75
2022/04/06 08:00:08;;;;;;;1.52;0.80;;;;;;;8.63;100.00;94973.25;5001521;28;24460;-76
2022/04/06 08:02:35;;;;;;;1.05;0.80;;;;;;;8.74;100.00;94973.34;5003068;28;24838;-72
2022/04/06 08:05:02;;;;;;;0.68;0.57;;;;;;;8.73;100.00;94969.13;4997941;28;24433;-75
2022/04/06 08:07:29;;;;;;;1.08;0.70;;;;;;;8.76;100.00;94971.50;4992564;28;21312;-75
2022/04/06 08:09:55;;;;;;;0.93;0.70;;;;;;;8.76;100.00;94975.84;4992639;28;24425;-74
2022/04/06 08:12:23;;;;;;;0.93;0.50;;;;;;;8.78;100.00;94973.97;4992224;28;24429;-75
2022/04/06 08:14:50;;;;;;;1.10;0.90;;;;;;;8.86;100.00;94980.28;4992821;28;20756;-75
2022/04/06 08:17:17;;;;;;;1.90;0.70;;;;;;;8.87;100.00;94974.19;4992670;28;20818;-74
2022/04/06 08:19:43;;;;;;;0.80;0.70;;;;;;;9.09;100.00;94976.09;4992529;28;24501;-75
2022/04/06 08:22:10;;;;;;;1.55;0.90;;;;;;;9.12;100.00;94977.63;4991977;28;24468;-75
2022/04/06 08:24:36;;;;;;;1.90;0.65;;;;;;;9.08;100.00;94976.19;4992561;28;24436;-75
2022/04/06 08:27:03;;;;;;;1.08;0.60;;;;;;;9.10;100.00;94971.75;4992171;28;24491;-75
2022/04/06 08:29:31;;;;;;;1.40;0.68;;;;;;;9.00;100.00;94975.91;4991807;28;20780;-75
2022/04/06 08:31:57;;;;;;;1.23;0.77;;;;;;;9.00;100.00;94968.16;4992052;28;24428;-74
2022/04/06 08:34:24;;;;;;;1.60;0.55;;;;;;;9.07;100.00;94971.97;4992500;28;21174;-75
2022/04/06 08:36:50;;;;;;;1.00;0.77;;;;;;;9.06;100.00;94970.34;4992063;28;20764;-75
2022/04/06 08:39:17;;;;;;;2.90;1.48;;;;;;;9.16;100.00;94968.75;4991926;28;24433;-75
2022/04/06 08:41:43;;;;;;;0.80;0.73;;;;;;;9.25;100.00;94969.88;4991800;28;24428;-75
2022/04/06 08:44:10;;;;;;;5.40;0.70;;;;;;;9.32;100.00;94973.66;4992136;28;24971;-75
2022/04/06 08:46:41;;;;;;;1.80;0.70;;;;;;;9.49;100.00;94967.28;4992172;28;24479;-75
2022/04/06 08:49:07;;;;;;;1.50;0.70;;;;;;;9.57;100.00;94970.19;4995243;28;20728;-74
2022/04/06 08:51:34;;;;;;;1.10;0.65;;;;;;;9.72;100.00;94965.66;5011201;28;20762;-76
2022/04/06 08:54:01;;;;;;;0.60;0.50;;;;;;;9.74;100.00;94968.94;5011427;28;21136;-75
2022/04/06 08:56:28;;;;;;;1.80;0.60;;;;;;;9.73;100.00;94964.72;5011466;28;24984;-75
2022/04/06 08:58:54;;;;;;;0.52;0.38;;;;;;;9.74;100.00;94964.59;5011471;28;24448;-75
2022/04/06 09:01:21;;;;;;;1.08;0.60;;;;;;;9.72;100.00;94963.91;5010935;28;24447;-75
2022/04/06 09:03:49;;;;;;;0.68;0.40;;;;;;;9.80;100.00;94964.16;5011580;28;21196;-75
2022/04/06 09:06:16;;;;;;;1.15;0.60;;;;;;;9.82;100.00;94951.94;5011112;28;20824;-75
2022/04/06 09:08:45;;;;;;;1.27;0.63;;;;;;;9.87;100.00;94955.03;5010967;28;24425;-75
2022/04/06 09:11:13;;;;;;;0.65;0.30;;;;;;;9.96;100.00;94957.88;5010975;28;20765;-75
2022/04/06 09:13:42;;;;;;;1.60;0.40;;;;;;;10.03;100.00;94966.84;5011600;28;20800;-75
2022/04/06 09:16:11;;;;;;;1.10;0.43;;;;;;;10.01;100.00;94964.38;5011176;28;24520;-75
2022/04/06 09:18:40;;;;;;;0.40;0.30;;;;;;;9.95;100.00;94957.06;5011256;28;24436;-75
2022/04/06 09:21:10;;;;;;;0.40;0.30;;;;;;;10.06;100.00;94961.44;5010191;28;24450;-76
2022/04/06 09:23:37;;;;;;;2.42;0.40;;;;;;;10.17;100.00;94964.88;5011402;28;20828;-75
2022/04/06 09:26:04;;;;;;;0.40;0.30;;;;;;;10.23;100.00;94966.19;5011227;28;20781;-75
2022/04/06 09:28:31;;;;;;;0.57;0.40;;;;;;;10.27;100.00;94966.81;5011035;28;20770;-75
2022/04/06 09:30:58;;;;;;;0.70;0.37;;;;;;;10.55;96.86;94968.16;5010356;28;24445;-74
2022/04/06 09:33:29;;;;;;;0.50;0.20;;;;;;;10.45;97.30;94967.19;5010941;28;24424;-76
2022/04/06 09:35:57;;;;;;;0.20;0.20;;;;;;;10.46;96.82;94961.94;5010717;28;24504;-75
2022/04/06 09:38:31;;;;;;;0.30;0.20;;;;;;;10.42;95.98;94960.50;5010190;28;21184;-76
2022/04/06 09:41:02;;;;;;;0.35;0.30;;;;;;;10.51;94.35;94962.41;5010067;28;21250;-75
2022/04/06 09:43:30;;;;;;;0.20;0.15;;;;;;;10.81;94.26;94955.81;5010966;28;20754;-75
2022/04/06 09:49:00;;;;;;;2.15;0.52;;;;;;;11.40;92.28;94960.72;5010442;28;24483;-75
2022/04/06 09:51:27;;;;;;;1.38;0.40;;;;;;;11.50;88.32;94960.84;4993169;28;24512;-76
2022/04/06 09:53:55;;;;;;;0.40;0.30;;;;;;;10.82;88.92;94944.50;4991130;28;24420;-75
2022/04/06 09:56:22;;;;;;;1.00;0.40;;;;;;;10.80;90.06;94955.00;4990780;28;24483;-75
2022/04/06 09:58:49;;;;;;;0.50;0.10;;;;;;;10.93;91.99;94947.09;4990756;28;24456;-76
2022/04/06 10:01:17;;;;;;;1.83;0.30;;;;;;;10.87;90.74;94945.81;4990470;28;24492;-74
2022/04/06 10:03:50;;;;;;;1.15;0.50;;;;;;;11.00;91.31;94952.63;4990790;28;24429;-74
2022/04/06 10:06:16;;;;;;;0.65;0.43;;;;;;;11.10;91.29;94945.81;4990925;28;20855;-75
2022/04/06 10:08:44;;;;;;;1.33;0.33;;;;;;;11.27;89.72;94941.88;5017327;23;25021;-77
2022/04/06 10:11:13;;;;;;;0.38;0.32;;;;;;;11.52;88.02;94944.19;5051807;28;24978;-78
2022/04/06 10:13:40;;;;;;;1.08;0.38;;;;;;;11.60;85.91;94928.00;5053160;28;20787;-77
2022/04/06 10:16:10;;;;;;;1.15;0.55;;;;;;;11.63;85.87;94930.38;5052563;28;24848;-78
2022/04/06 10:18:37;;;;;;;2.07;0.43;;;;;;;11.82;83.42;94920.13;5048646;28;24462;-78
2022/04/06 10:21:13;;;;;;;0.80;0.50;;;;;;;11.88;83.92;94918.03;5032748;28;24447;-77
2022/04/06 10:23:48;;;;;;;0.60;0.40;;;;;;;11.80;84.69;94910.84;5032271;28;24412;-78
2022/04/06 10:26:31;;;;;;;0.75;0.30;;;;;;;11.96;82.72;94907.84;5033479;28;24821;-78
2022/04/06 10:28:58;;;;;;;0.80;0.43;;;;;;;12.29;81.35;94902.47;5034900;28;24443;-78
2022/04/06 10:31:29;;;;;;;1.65;0.40;;;;;;;12.17;81.36;94903.50;5034969;28;24478;-77
2022/04/06 10:34:19;;;;;;;1.42;0.43;;;;;;;12.44;79.28;94907.34;5035173;28;24420;-78
2022/04/06 10:37:04;;;;;;;2.13;0.57;;;;;;;11.71;81.21;94893.44;5034420;28;24507;-78
2022/04/06 10:39:30;;;;;;;1.38;0.50;;;;;;;11.96;80.95;94902.66;5034508;28;24434;-78
2022/04/06 10:42:15;;;;;;;2.20;0.70;;;;;;;12.07;83.90;94892.22;5034027;28;24451;-77
2022/04/06 10:44:43;;;;;;;0.60;0.47;;;;;;;12.58;83.36;94900.03;5034542;28;24479;-77
2022/04/06 10:47:11;;;;;;;0.75;0.43;;;;;;;12.30;80.42;94885.13;5034426;28;24451;-78
2022/04/06 10:49:38;;;;;;;1.30;0.45;;;;;;;12.55;80.10;94883.88;5033864;28;24482;-76
2022/04/06 10:52:27;;;;;;;2.45;0.60;;;;;;;12.58;78.36;94879.25;5032093;28;24435;-77
2022/04/06 10:54:54;;;;;;;1.20;0.50;;;;;;;12.27;78.63;94872.38;5024640;28;25350;-76
2022/04/06 10:57:22;;;;;;;0.55;0.30;;;;;;;12.45;77.90;94878.63;5034849;28;24419;-78
2022/04/06 11:00:13;;;;;;;0.90;0.40;;;;;;;12.23;78.10;94866.63;5037305;28;24436;-78
2022/04/06 11:02:48;;;;;;;0.88;0.40;;;;;;;12.49;78.90;94861.84;5022690;28;24483;-78
2022/04/06 11:05:41;;;;;;;1.00;0.60;;;;;;;12.56;77.33;94864.75;5037341;28;25022;-76
2022/04/06 11:11:12;;;;;;;0.60;0.40;;;;;;;12.69;79.01;94860.16;5038457;28;24873;-77
2022/04/06 11:13:40;;;;;;;0.47;0.22;;;;;;;12.41;76.99;94858.25;5037269;28;24424;-77
2022/04/06 11:16:07;;;;;;;0.57;0.38;;;;;;;12.28;75.68;94851.50;5037674;28;24491;-77
2022/04/06 11:18:47;;;;;;;0.57;0.30;;;;;;;12.65;76.72;94848.38;5038757;28;24570;-77
2022/04/06 11:21:14;;;;;;;0.77;0.40;;;;;;;12.80;76.43;94847.06;5039357;28;24448;-80
2022/04/06 11:23:41;;;;;;;0.80;0.60;;;;;;;12.58;77.38;94839.47;5039288;28;24468;-77
2022/04/06 11:26:07;;;;;;;0.60;0.50;;;;;;;12.51;76.15;94849.56;5034192;28;25060;-76
2022/04/06 11:28:34;;;;;;;0.70;0.50;;;;;;;12.17;76.68;94848.19;5035449;28;24440;-77
2022/04/06 11:31:03;;;;;;;2.60;0.50;;;;;;;12.40;77.53;94844.44;5040375;28;24450;-77
2022/04/06 11:33:39;;;;;;;0.50;0.30;;;;;;;12.64;74.74;94846.72;5037559;28;24459;-78
2022/04/06 11:36:12;;;;;;;1.00;0.25;;;;;;;12.55;74.08;94842.31;5038865;28;24462;-78
2022/04/06 11:38:40;;;;;;;0.88;0.25;;;;;;;12.46;74.71;94837.91;5037406;28;24440;-78
2022/04/06 11:41:06;;;;;;;0.30;0.30;;;;;;;12.47;75.76;94829.19;5037057;28;24886;-77
2022/04/06 11:43:37;;;;;;;1.30;0.30;;;;;;;12.87;74.04;94833.53;5037700;28;24956;-77
2022/04/06 11:46:05;;;;;;;0.38;0.20;;;;;;;12.72;72.40;94820.94;5035377;28;24447;-76